Time;durP1;ratioP1;P1;durP2;ratioP2;P2;SDS_P1;SDS_P2;PMS_P1;PMS_P2;Temp;Humidity;BMP_temperature;BMP_pressure;BME280_temperature;BME280_humidity;BME280_pressure;Samples;Min_cycle;Max_cycle;Signal;HPM_P1;HPM_P2
2022/02/03 00:01:25;;;;;;;13.70;4.72;;;;;;;;;;5053328;28;20375;-64
2022/02/03 00:03:58;;;;;;;12.68;4.53;;;;;;;;;;5053169;28;20037;-64
2022/02/03 00:06:35;;;;;;;11.18;4.35;;;;;;;;;;5053101;28;20066;-64
2022/02/03 00:21:58;;;;;;;10.50;3.75;;;;;;;;;;5053062;28;20036;-64
2022/02/03 00:30:13;;;;;;;9.10;3.35;;;;;;;;;;5053050;28;20028;-64
2022/02/03 00:35:34;;;;;;;7.05;3.30;;;;;;;;;;5052586;28;20109;-64
2022/02/03 00:38:19;;;;;;;11.23;3.10;;;;;;;;;;5052676;28;20056;-64
2022/02/03 00:49:04;;;;;;;7.85;2.78;;;;;;;;;;5052323;28;20518;-64
2022/02/03 00:51:30;;;;;;;8.23;2.90;;;;;;;;;;5052452;28;20457;-64
2022/02/03 00:53:58;;;;;;;8.90;3.15;;;;;;;;;;5052569;28;20434;-64
2022/02/03 00:56:30;;;;;;;8.27;2.75;;;;;;;;;;5052309;28;20017;-64
2022/02/03 00:59:05;;;;;;;7.90;2.40;;;;;;;;;;5052116;28;20060;-64
2022/02/03 01:01:35;;;;;;;7.30;2.40;;;;;;;;;;5051699;28;20047;-65
2022/02/03 01:04:04;;;;;;;6.72;2.72;;;;;;;;;;5052177;28;20033;-65
2022/02/03 01:06:33;;;;;;;9.85;2.83;;;;;;;;;;5052071;28;20071;-66
2022/02/03 01:08:59;;;;;;;12.27;3.58;;;;;;;;;;5051954;28;20423;-64
2022/02/03 01:11:33;;;;;;;12.00;3.45;;;;;;;;;;5052159;28;20024;-64
2022/02/03 01:14:09;;;;;;;8.45;2.95;;;;;;;;;;5051769;28;20078;-64
2022/02/03 01:16:59;;;;;;;13.13;3.15;;;;;;;;;;5052144;28;20460;-64
2022/02/03 01:43:50;;;;;;;6.25;2.60;;;;;;;;;;5051176;28;20063;-64
2022/02/03 01:46:19;;;;;;;8.13;2.40;;;;;;;;;;5051418;28;20151;-64
2022/02/03 01:54:04;;;;;;;9.85;2.92;;;;;;;;;;5051422;28;20036;-64
2022/02/03 01:56:36;;;;;;;12.60;2.92;;;;;;;;;;5050119;28;20037;-64
2022/02/03 01:59:03;;;;;;;7.93;2.63;;;;;;;;;;5050976;28;20090;-64
2022/02/03 02:01:31;;;;;;;9.75;2.70;;;;;;;;;;5051091;28;20033;-64
2022/02/03 02:04:16;;;;;;;6.40;2.78;;;;;;;;;;5051346;28;20041;-64
2022/02/03 02:07:00;;;;;;;10.68;2.58;;;;;;;;;;5051661;28;20064;-64
2022/02/03 02:09:57;;;;;;;9.88;3.03;;;;;;;;;;5051532;28;20032;-64
2022/02/03 02:12:43;;;;;;;9.13;2.50;;;;;;;;;;5051181;28;20028;-64
2022/02/03 02:37:38;;;;;;;10.93;2.72;;;;;;;;;;5068989;28;20058;-64
2022/02/03 02:40:42;;;;;;;14.63;2.78;;;;;;;;;;5068207;28;20032;-64
2022/02/03 02:43:00;;;;;;;7.15;2.75;;;;;;;;;;5068370;28;20025;-64
2022/02/03 02:45:46;;;;;;;11.88;2.60;;;;;;;;;;5068296;28;20044;-63
2022/02/03 02:48:24;;;;;;;9.43;2.20;;;;;;;;;;5068396;28;20055;-65
2022/02/03 02:51:06;;;;;;;6.72;2.20;;;;;;;;;;5068456;28;20777;-63
2022/02/03 02:53:53;;;;;;;10.90;2.40;;;;;;;;;;5068387;28;20047;-64
2022/02/03 02:59:12;;;;;;;7.30;3.20;;;;;;;;;;5068132;28;20028;-63
2022/02/03 03:02:22;;;;;;;7.20;2.55;;;;;;;;;;5050857;28;20075;-63
2022/02/03 03:32:38;;;;;;;9.82;2.20;;;;;;;;;;5054109;28;20052;-63
2022/02/03 03:35:14;;;;;;;12.27;2.28;;;;;;;;;;5053851;28;20021;-63
2022/02/03 03:37:49;;;;;;;8.50;2.20;;;;;;;;;;5053663;28;20404;-63
2022/02/03 03:40:16;;;;;;;14.98;3.15;;;;;;;;;;5053513;28;20044;-66
2022/02/03 03:42:50;;;;;;;7.78;2.20;;;;;;;;;;5053681;28;20031;-63
2022/02/03 03:45:16;;;;;;;9.00;2.42;;;;;;;;;;5053793;28;20381;-63
2022/02/03 03:47:47;;;;;;;7.53;2.15;;;;;;;;;;5053432;28;20029;-63
2022/02/03 03:50:16;;;;;;;10.82;2.50;;;;;;;;;;5053395;28;20039;-64
2022/02/03 03:52:46;;;;;;;5.35;2.05;;;;;;;;;;5053487;28;20079;-62
2022/02/03 03:58:03;;;;;;;11.10;2.85;;;;;;;;;;5053619;28;20061;-63
2022/02/03 04:29:15;;;;;;;10.07;2.90;;;;;;;;;;5053190;28;20439;-63
2022/02/03 04:40:07;;;;;;;8.27;2.78;;;;;;;;;;5052656;28;20025;-63
2022/02/03 05:04:24;;;;;;;8.75;3.03;;;;;;;;;;5051967;28;20132;-64
2022/02/03 05:07:33;;;;;;;10.63;3.63;;;;;;;;;;5052363;28;20029;-64
2022/02/03 05:10:03;;;;;;;12.05;2.83;;;;;;;;;;5052681;28;20072;-63
2022/02/03 05:12:56;;;;;;;12.68;3.20;;;;;;;;;;5052198;28;20075;-63
2022/02/03 05:15:44;;;;;;;9.90;3.53;;;;;;;;;;5052220;28;20033;-63
2022/02/03 05:45:04;;;;;;;10.13;3.58;;;;;;;;;;5050856;28;20049;-63
2022/02/03 05:52:44;;;;;;;13.32;4.60;;;;;;;;;;5051263;28;20036;-63
2022/02/03 06:29:18;;;;;;;11.98;4.43;;;;;;;;;;5050977;28;20036;-63
2022/02/03 06:31:46;;;;;;;13.18;4.30;;;;;;;;;;5050829;28;20050;-63
2022/02/03 06:34:13;;;;;;;14.77;4.43;;;;;;;;;;5050463;28;20045;-63
2022/02/03 06:36:40;;;;;;;11.50;4.60;;;;;;;;;;5049160;28;20033;-63
2022/02/03 06:39:19;;;;;;;29.15;13.07;;;;;;;;;;5050711;28;20033;-63
2022/02/03 06:41:46;;;;;;;21.58;10.95;;;;;;;;;;5050298;28;20025;-63
2022/02/03 06:44:14;;;;;;;23.90;12.90;;;;;;;;;;5050503;28;20073;-63
2022/02/03 06:46:45;;;;;;;20.98;8.68;;;;;;;;;;5050231;28;20018;-63
2022/02/03 06:51:52;;;;;;;15.23;5.65;;;;;;;;;;5047970;28;20025;-62
2022/02/03 06:54:28;;;;;;;13.68;6.43;;;;;;;;;;5039347;28;20154;-62
2022/02/03 06:57:00;;;;;;;12.60;6.15;;;;;;;;;;5032295;28;20103;-63
2022/02/03 06:59:44;;;;;;;16.08;8.88;;;;;;;;;;5034467;28;20022;-63
2022/02/03 07:02:10;;;;;;;10.93;5.00;;;;;;;;;;5034237;28;20048;-62
2022/02/03 07:04:42;;;;;;;13.57;5.80;;;;;;;;;;5034410;28;20060;-63
2022/02/03 07:07:09;;;;;;;15.00;3.92;;;;;;;;;;5034377;28;20013;-63
2022/02/03 07:09:35;;;;;;;12.77;7.10;;;;;;;;;;5034341;28;20116;-63
2022/02/03 07:12:03;;;;;;;12.88;5.25;;;;;;;;;;5034505;28;20022;-62
2022/02/03 07:14:34;;;;;;;22.05;9.40;;;;;;;;;;5033298;28;20029;-64
2022/02/03 07:17:02;;;;;;;16.67;6.80;;;;;;;;;;5034313;28;20029;-66
2022/02/03 07:19:28;;;;;;;12.82;4.47;;;;;;;;;;5034325;28;20026;-65
2022/02/03 07:21:54;;;;;;;18.15;8.60;;;;;;;;;;5034480;28;20028;-64
2022/02/03 07:24:20;;;;;;;17.08;8.00;;;;;;;;;;5034199;28;20152;-63
2022/02/03 07:26:46;;;;;;;19.05;7.30;;;;;;;;;;5033997;28;20105;-62
2022/02/03 07:29:12;;;;;;;83.75;37.33;;;;;;;;;;5034065;28;20033;-64
2022/02/03 07:31:38;;;;;;;77.95;35.65;;;;;;;;;;5033720;28;20079;-64
2022/02/03 07:34:10;;;;;;;151.57;71.40;;;;;;;;;;5034550;28;20056;-64
2022/02/03 07:36:37;;;;;;;52.05;24.52;;;;;;;;;;5034606;28;20044;-62
2022/02/03 07:39:04;;;;;;;21.00;12.32;;;;;;;;;;5033993;28;20492;-64
2022/02/03 07:41:30;;;;;;;15.98;6.80;;;;;;;;;;5033600;28;20049;-65
2022/02/03 07:43:56;;;;;;;13.63;7.38;;;;;;;;;;5032510;28;20463;-64
2022/02/03 07:46:22;;;;;;;8.50;4.90;;;;;;;;;;5033829;28;20021;-64
2022/02/03 07:48:51;;;;;;;13.13;5.78;;;;;;;;;;5033576;28;20354;-64
2022/02/03 07:51:17;;;;;;;8.82;4.25;;;;;;;;;;5033423;28;20017;-64
2022/02/03 07:53:44;;;;;;;11.65;5.50;;;;;;;;;;5033443;28;20032;-62
2022/02/03 07:56:10;;;;;;;13.93;4.63;;;;;;;;;;5032868;28;20026;-63
2022/02/03 07:58:36;;;;;;;11.90;4.90;;;;;;;;;;5033366;28;20489;-63
2022/02/03 08:01:02;;;;;;;13.70;4.35;;;;;;;;;;5032976;28;20025;-62
2022/02/03 08:03:28;;;;;;;18.20;5.63;;;;;;;;;;5032996;28;20050;-64
2022/02/03 08:06:00;;;;;;;16.60;7.82;;;;;;;;;;5033467;28;20068;-62
2022/02/03 08:08:41;;;;;;;17.50;7.25;;;;;;;;;;5032528;28;20022;-63
2022/02/03 08:11:12;;;;;;;10.65;4.85;;;;;;;;;;5033105;28;20397;-63
2022/02/03 08:14:17;;;;;;;13.95;4.68;;;;;;;;;;5033175;28;20034;-64
2022/02/03 08:16:43;;;;;;;12.27;3.83;;;;;;;;;;5032573;28;20057;-63
2022/02/03 08:19:20;;;;;;;13.05;5.47;;;;;;;;;;5032822;28;20484;-63
2022/02/03 08:21:52;;;;;;;21.17;7.25;;;;;;;;;;5032561;28;20087;-63
2022/02/03 08:24:25;;;;;;;;;;;;;;;;;;5032394;28;20026;-61
2022/02/03 08:27:05;;;;;;;;;;;;;;;;;;5032730;28;20288;-62
2022/02/03 08:32:06;;;;;;;32.15;13.73;;;;;;;;;;5033168;28;20037;-63
2022/02/03 08:34:57;;;;;;;17.38;8.73;;;;;;;;;;5032830;28;20116;-65
2022/02/03 08:37:31;;;;;;;16.10;6.55;;;;;;;;;;5032799;28;20191;-64
2022/02/03 08:40:10;;;;;;;17.13;6.38;;;;;;;;;;5032669;28;20022;-65
2022/02/03 08:42:36;;;;;;;14.00;5.22;;;;;;;;;;5032399;28;20385;-64
2022/02/03 08:45:02;;;;;;;15.98;5.55;;;;;;;;;;5032370;28;20041;-65
2022/02/03 08:47:28;;;;;;;14.65;5.80;;;;;;;;;;5032073;28;20030;-64
2022/02/03 08:49:54;;;;;;;13.68;5.65;;;;;;;;;;5038224;28;20025;-65
2022/02/03 08:52:31;;;;;;;17.63;6.15;;;;;;;;;;5036105;28;20489;-64
2022/02/03 08:55:08;;;;;;;14.45;6.07;;;;;;;;;;5031542;28;20024;-62
2022/02/03 09:00:33;;;;;;;13.45;6.22;;;;;;;;;;5030334;28;20447;-64
2022/02/03 09:54:59;;;;;;;7.72;3.60;;;;;;;;;;4970456;28;20163;-63
2022/02/03 10:00:30;;;;;;;8.25;3.35;;;;;;;;;;4970086;28;20042;-64
2022/02/03 10:02:58;;;;;;;8.43;3.50;;;;;;;;;;4969397;28;20070;-64
2022/02/03 10:05:37;;;;;;;9.18;2.70;;;;;;;;;;4970144;28;20125;-63
2022/02/03 10:08:04;;;;;;;9.80;2.78;;;;;;;;;;4970219;28;20031;-63
2022/02/03 10:10:30;;;;;;;6.07;2.80;;;;;;;;;;4969908;28;20035;-63
2022/02/03 10:12:56;;;;;;;10.02;3.20;;;;;;;;;;4969738;28;20652;-64
2022/02/03 10:15:23;;;;;;;11.23;3.53;;;;;;;;;;4994951;28;20056;-63
2022/02/03 10:17:50;;;;;;;9.35;3.58;;;;;;;;;;5030856;28;20033;-64
2022/02/03 10:20:19;;;;;;;11.02;4.55;;;;;;;;;;5030741;28;20072;-63
2022/02/03 10:22:46;;;;;;;18.77;7.88;;;;;;;;;;5030852;28;20021;-63
2022/02/03 10:25:15;;;;;;;54.92;22.88;;;;;;;;;;5030883;28;20107;-64
2022/02/03 10:27:47;;;;;;;13.18;5.93;;;;;;;;;;5030900;28;20052;-64
2022/02/03 10:30:15;;;;;;;;;;;;;;;;;;5031232;28;20108;-65
2022/02/03 10:32:43;;;;;;;17.20;9.15;;;;;;;;;;5033693;28;19913;-63
2022/02/03 10:35:16;;;;;;;7.90;2.55;;;;;;;;;;5034988;28;20035;-63
2022/02/03 10:37:47;;;;;;;11.90;4.13;;;;;;;;;;5034727;28;20130;-63
2022/02/03 10:51:34;;;;;;;8.90;3.55;;;;;;;;;;5034850;28;20119;-64
2022/02/03 11:07:34;;;;;;;11.25;4.82;;;;;;;;;;5054567;28;20044;-65
2022/02/03 11:12:29;;;;;;;7.68;4.05;;;;;;;;;;5054133;28;20040;-65
2022/02/03 11:14:58;;;;;;;10.15;4.30;;;;;;;;;;5054259;28;20480;-64
2022/02/03 11:17:24;;;;;;;8.35;3.38;;;;;;;;;;5053521;28;20021;-65
2022/02/03 11:19:53;;;;;;;15.25;6.53;;;;;;;;;;5053840;28;20107;-64
2022/02/03 11:22:27;;;;;;;13.98;4.60;;;;;;;;;;5054038;28;20032;-65
2022/02/03 11:25:07;;;;;;;9.00;3.33;;;;;;;;;;5053751;28;20044;-65
2022/02/03 11:28:36;;;;;;;9.90;2.95;;;;;;;;;;5053489;28;20380;-65
2022/02/03 12:14:21;;;;;;;6.13;2.13;;;;;;;;;;5050659;28;20079;-65
2022/02/03 12:24:18;;;;;;;6.88;3.20;;;;;;;;;;5050100;28;20041;-65
2022/02/03 12:29:38;;;;;;;11.10;3.45;;;;;;;;;;5043679;28;20086;-65
2022/02/03 12:39:59;;;;;;;26.25;10.52;;;;;;;;;;5052375;28;20025;-66
2022/02/03 12:42:46;;;;;;;26.08;10.02;;;;;;;;;;5052218;28;20021;-66
2022/02/03 12:45:18;;;;;;;20.50;8.43;;;;;;;;;;5052307;28;20064;-64
2022/02/03 12:47:48;;;;;;;15.10;7.10;;;;;;;;;;5052227;28;20025;-65
2022/02/03 12:50:21;;;;;;;36.47;16.95;;;;;;;;;;5052262;28;20242;-65
2022/02/03 12:52:47;;;;;;;28.52;14.65;;;;;;;;;;5052912;28;20028;-65
2022/02/03 12:55:28;;;;;;;10.00;4.07;;;;;;;;;;5052671;28;20087;-64
2022/02/03 12:57:54;;;;;;;11.43;6.57;;;;;;;;;;5053242;28;20519;-64
2022/02/03 13:00:31;;;;;;;8.38;4.90;;;;;;;;;;5051999;28;20517;-64
2022/02/03 13:02:59;;;;;;;7.93;3.22;;;;;;;;;;5043163;28;20044;-63
2022/02/03 13:05:27;;;;;;;9.25;3.78;;;;;;;;;;5039021;28;20139;-62
2022/02/03 13:07:55;;;;;;;5.40;2.40;;;;;;;;;;5040329;28;20021;-62
2022/02/03 13:10:22;;;;;;;5.53;2.50;;;;;;;;;;5044917;28;20108;-63
2022/02/03 13:12:57;;;;;;;8.88;3.47;;;;;;;;;;5052009;28;20021;-64
2022/02/03 13:15:41;;;;;;;28.15;16.27;;;;;;;;;;5051722;28;20029;-63
2022/02/03 13:18:25;;;;;;;8.43;3.28;;;;;;;;;;5048779;28;20587;-63
2022/02/03 13:21:06;;;;;;;13.68;4.70;;;;;;;;;;5037157;28;20047;-63
2022/02/03 13:23:35;;;;;;;12.48;5.00;;;;;;;;;;5041351;28;20388;-64
2022/02/03 13:26:14;;;;;;;3.25;1.88;;;;;;;;;;5045740;28;20031;-63
2022/02/03 13:29:01;;;;;;;7.47;3.85;;;;;;;;;;5040449;28;20443;-64
2022/02/03 13:31:42;;;;;;;13.95;6.10;;;;;;;;;;5031669;28;20048;-64
2022/02/03 13:34:18;;;;;;;19.13;8.90;;;;;;;;;;5031684;28;20033;-63
2022/02/03 13:36:50;;;;;;;12.93;4.85;;;;;;;;;;5031627;28;20469;-63
2022/02/03 13:39:25;;;;;;;6.18;2.90;;;;;;;;;;5038684;28;20151;-63
2022/02/03 13:42:05;;;;;;;6.07;2.90;;;;;;;;;;5043496;28;20033;-63
2022/02/03 13:44:32;;;;;;;9.57;2.88;;;;;;;;;;5039336;28;20033;-62
2022/02/03 13:46:58;;;;;;;8.73;3.90;;;;;;;;;;5043688;28;20033;-63
2022/02/03 13:49:25;;;;;;;7.43;3.17;;;;;;;;;;5050300;28;20036;-64
2022/02/03 13:52:18;;;;;;;7.88;3.50;;;;;;;;;;5047368;28;20022;-63
2022/02/03 14:10:31;;;;;;;9.00;4.75;;;;;;;;;;5031071;28;20510;-64
2022/02/03 14:20:11;;;;;;;10.68;3.15;;;;;;;;;;5040195;28;20029;-62
2022/02/03 14:28:10;;;;;;;8.15;3.50;;;;;;;;;;5007238;28;20072;-64
2022/02/03 14:30:43;;;;;;;17.25;8.40;;;;;;;;;;5008057;28;20033;-64
2022/02/03 14:33:09;;;;;;;;;;;;;;;;;;5007741;28;20030;-63
2022/02/03 14:35:38;;;;;;;9.45;2.95;;;;;;;;;;5005425;28;19909;-64
2022/02/03 14:38:16;;;;;;;8.90;2.67;;;;;;;;;;5005681;28;20041;-65
2022/02/03 14:43:29;;;;;;;5.72;2.10;;;;;;;;;;5008246;28;20040;-63
2022/02/03 14:45:57;;;;;;;9.10;2.80;;;;;;;;;;5007696;28;20022;-63
2022/02/03 14:48:23;;;;;;;8.63;2.90;;;;;;;;;;5008375;28;20185;-64
2022/02/03 14:50:50;;;;;;;7.43;2.85;;;;;;;;;;5009007;28;20037;-64
2022/02/03 14:53:20;;;;;;;5.78;2.83;;;;;;;;;;5008348;28;20531;-64
2022/02/03 14:58:31;;;;;;;7.65;3.08;;;;;;;;;;5004006;28;20461;-64
2022/02/03 15:00:58;;;;;;;11.27;3.40;;;;;;;;;;5025657;28;20084;-64
2022/02/03 15:03:24;;;;;;;5.13;2.45;;;;;;;;;;5049841;28;20053;-65
2022/02/03 15:06:02;;;;;;;6.57;2.92;;;;;;;;;;5047041;28;20029;-64
2022/02/03 15:11:08;;;;;;;6.10;2.20;;;;;;;;;;5040379;28;20028;-64
2022/02/03 15:13:41;;;;;;;7.68;2.80;;;;;;;;;;5038679;28;20575;-62
2022/02/03 15:16:11;;;;;;;5.40;2.80;;;;;;;;;;5032130;28;20037;-64
2022/02/03 15:18:38;;;;;;;6.63;2.60;;;;;;;;;;5032825;28;20436;-64
2022/02/03 15:21:07;;;;;;;4.65;2.08;;;;;;;;;;5034084;28;20465;-64
2022/02/03 15:23:34;;;;;;;11.48;4.90;;;;;;;;;;5034287;28;20503;-64
2022/02/03 15:26:00;;;;;;;8.93;2.95;;;;;;;;;;5033766;28;20105;-62
2022/02/03 15:28:26;;;;;;;16.08;7.90;;;;;;;;;;5033724;28;20022;-63
2022/02/03 15:30:54;;;;;;;13.45;4.32;;;;;;;;;;5034408;28;20060;-64
2022/02/03 15:33:25;;;;;;;15.82;7.65;;;;;;;;;;5033713;28;20025;-63
2022/02/03 15:35:54;;;;;;;14.02;5.30;;;;;;;;;;5032745;28;20152;-63
2022/02/03 15:38:22;;;;;;;8.20;3.97;;;;;;;;;;5034368;28;20026;-64
2022/02/03 15:40:50;;;;;;;7.95;3.55;;;;;;;;;;5033851;28;20504;-63
2022/02/03 15:43:29;;;;;;;8.82;3.28;;;;;;;;;;5033805;28;20025;-63
2022/02/03 15:46:01;;;;;;;10.82;4.57;;;;;;;;;;5033361;28;20029;-63
2022/02/03 15:48:40;;;;;;;8.00;3.40;;;;;;;;;;5033217;28;20473;-63
2022/02/03 15:56:11;;;;;;;7.55;3.47;;;;;;;;;;5033040;28;20022;-63
2022/02/03 16:18:02;;;;;;;17.98;6.22;;;;;;;;;;5032836;28;20389;-63
2022/02/03 16:20:36;;;;;;;18.20;6.68;;;;;;;;;;5032872;28;20018;-66
2022/02/03 16:54:59;;;;;;;14.73;6.60;;;;;;;;;;5037817;28;20036;-64
2022/02/03 16:57:27;;;;;;;21.00;8.10;;;;;;;;;;5032005;28;20064;-63
2022/02/03 17:02:20;;;;;;;19.98;7.57;;;;;;;;;;5031932;28;20527;-65
2022/02/03 17:04:46;;;;;;;14.80;8.00;;;;;;;;;;5032219;28;20464;-63
2022/02/03 17:07:12;;;;;;;18.92;9.75;;;;;;;;;;5032461;28;20038;-63
2022/02/03 17:09:39;;;;;;;48.70;20.70;;;;;;;;;;5032030;28;20051;-63
2022/02/03 17:12:08;;;;;;;56.45;23.15;;;;;;;;;;5031948;28;20029;-63
2022/02/03 17:14:34;;;;;;;92.50;40.70;;;;;;;;;;5033985;28;20060;-63
2022/02/03 17:17:02;;;;;;;26.02;12.00;;;;;;;;;;5040437;28;20096;-64
2022/02/03 17:19:29;;;;;;;18.70;8.52;;;;;;;;;;5025489;28;20480;-63
2022/02/03 17:21:55;;;;;;;37.58;17.33;;;;;;;;;;5044093;28;20070;-64
2022/02/03 17:24:21;;;;;;;33.25;16.15;;;;;;;;;;5051851;28;20183;-65
2022/02/03 17:29:37;;;;;;;33.53;15.90;;;;;;;;;;5052933;28;20033;-65
2022/02/03 17:32:22;;;;;;;30.60;13.10;;;;;;;;;;5051600;28;20063;-64
2022/02/03 18:31:08;;;;;;;40.30;19.95;;;;;;;;;;5031269;28;20044;-64
2022/02/03 19:14:32;;;;;;;132.23;57.05;;;;;;;;;;4977848;28;20137;-64
2022/02/03 19:58:53;;;;;;;101.20;47.58;;;;;;;;;;5033830;28;20115;-64
2022/02/03 20:08:26;;;;;;;94.72;45.05;;;;;;;;;;5033304;28;20033;-64
2022/02/03 20:10:53;;;;;;;102.45;45.70;;;;;;;;;;5033308;28;20048;-64
2022/02/03 20:13:19;;;;;;;99.97;46.63;;;;;;;;;;5032983;28;20175;-64
2022/02/03 20:15:47;;;;;;;98.43;44.67;;;;;;;;;;5033399;28;20068;-64
2022/02/03 20:18:14;;;;;;;94.68;44.58;;;;;;;;;;5032897;28;20075;-64
2022/02/03 20:20:41;;;;;;;95.10;45.20;;;;;;;;;;5033320;28;20036;-64
2022/02/03 20:23:10;;;;;;;109.60;49.78;;;;;;;;;;5032918;28;20025;-64
2022/02/03 20:25:37;;;;;;;114.47;51.78;;;;;;;;;;5032873;28;20032;-64
2022/02/03 20:28:07;;;;;;;112.47;52.50;;;;;;;;;;5033667;28;20136;-64
2022/02/03 20:30:33;;;;;;;101.78;49.05;;;;;;;;;;5032637;28;20033;-64
2022/02/03 20:32:59;;;;;;;98.93;47.03;;;;;;;;;;5032745;28;20036;-64
2022/02/03 20:35:26;;;;;;;97.88;47.55;;;;;;;;;;5032961;28;20480;-64
2022/02/03 20:37:52;;;;;;;115.40;51.38;;;;;;;;;;5032776;28;20029;-64
2022/02/03 20:40:18;;;;;;;142.93;61.45;;;;;;;;;;5032732;28;20476;-64
2022/02/03 20:42:44;;;;;;;146.88;65.32;;;;;;;;;;5032790;28;20388;-65
2022/02/03 20:45:11;;;;;;;124.65;56.50;;;;;;;;;;5033077;28;20041;-64
2022/02/03 20:47:37;;;;;;;145.10;64.03;;;;;;;;;;5032639;28;20362;-64
2022/02/03 20:50:05;;;;;;;135.00;60.38;;;;;;;;;;5032619;28;20112;-64
2022/02/03 20:52:31;;;;;;;134.68;59.40;;;;;;;;;;5032649;28;20079;-64
2022/02/03 20:54:57;;;;;;;126.57;57.30;;;;;;;;;;5032549;28;20104;-65
2022/02/03 20:57:24;;;;;;;121.93;57.78;;;;;;;;;;5032644;28;20025;-64
2022/02/03 21:02:27;;;;;;;125.25;54.17;;;;;;;;;;5031992;28;20489;-64
2022/02/03 21:07:22;;;;;;;113.65;53.15;;;;;;;;;;5032301;28;20081;-64
2022/02/03 21:09:48;;;;;;;113.00;52.67;;;;;;;;;;5032146;28;20036;-64
2022/02/03 21:12:15;;;;;;;115.60;52.17;;;;;;;;;;5032191;28;20025;-64
2022/02/03 21:14:41;;;;;;;117.22;53.13;;;;;;;;;;5031964;28;20029;-64
2022/02/03 21:17:07;;;;;;;114.35;52.85;;;;;;;;;;5031705;28;20474;-64
2022/02/03 21:19:33;;;;;;;107.30;49.47;;;;;;;;;;5031622;28;20108;-65
2022/02/03 21:21:59;;;;;;;105.45;49.10;;;;;;;;;;5031820;28;20569;-65
2022/02/03 21:24:25;;;;;;;85.40;41.67;;;;;;;;;;5039068;28;20510;-64
2022/02/03 21:26:54;;;;;;;96.45;44.67;;;;;;;;;;5040132;28;20521;-64
2022/02/03 21:29:20;;;;;;;105.18;48.08;;;;;;;;;;5041179;28;20033;-64
2022/02/03 21:31:46;;;;;;;81.88;38.10;;;;;;;;;;5040512;28;20025;-65
2022/02/03 21:34:16;;;;;;;78.10;37.85;;;;;;;;;;5039636;28;20044;-65
2022/02/03 21:36:44;;;;;;;68.25;32.25;;;;;;;;;;5041857;28;20488;-64
2022/02/03 21:39:10;;;;;;;67.15;32.00;;;;;;;;;;5036405;28;20056;-64
2022/02/03 21:41:36;;;;;;;72.20;34.85;;;;;;;;;;5031290;28;20087;-66
2022/02/03 21:44:02;;;;;;;87.75;39.67;;;;;;;;;;5033402;28;20031;-65
2022/02/03 21:46:28;;;;;;;91.20;41.45;;;;;;;;;;5031797;28;20048;-64
2022/02/03 21:48:54;;;;;;;71.97;34.33;;;;;;;;;;5030541;28;20076;-62
2022/02/03 21:51:27;;;;;;;73.45;34.05;;;;;;;;;;5031519;28;20025;-65
2022/02/03 21:53:53;;;;;;;;;;;;;;;;;;5031553;28;20040;-63
2022/02/03 21:56:20;;;;;;;66.25;30.77;;;;;;;;;;5031442;28;19908;-65
2022/02/03 21:58:46;;;;;;;80.43;38.40;;;;;;;;;;5031491;28;20021;-65
2022/02/03 22:01:13;;;;;;;78.43;36.28;;;;;;;;;;5030718;28;20037;-66
2022/02/03 22:03:39;;;;;;;96.00;44.97;;;;;;;;;;5031904;28;20128;-64
2022/02/03 22:06:05;;;;;;;77.28;37.20;;;;;;;;;;5031341;28;20091;-65
2022/02/03 22:08:32;;;;;;;86.60;39.83;;;;;;;;;;5031732;28;20033;-64
2022/02/03 22:11:00;;;;;;;93.68;41.33;;;;;;;;;;5032388;28;20040;-64
2022/02/03 22:13:33;;;;;;;85.63;38.30;;;;;;;;;;5031060;28;20473;-64
2022/02/03 22:16:05;;;;;;;79.53;37.80;;;;;;;;;;5030758;28;20246;-63
2022/02/03 22:18:31;;;;;;;98.45;42.90;;;;;;;;;;5031064;28;20465;-64
2022/02/03 22:21:03;;;;;;;87.18;38.88;;;;;;;;;;5032606;28;20495;-66
2022/02/03 22:47:57;;;;;;;73.20;31.75;;;;;;;;;;5030948;28;20100;-64
2022/02/03 22:50:23;;;;;;;71.68;32.83;;;;;;;;;;5030631;28;20037;-65
2022/02/03 22:52:49;;;;;;;76.50;34.88;;;;;;;;;;5030553;28;20025;-67
2022/02/03 22:55:16;;;;;;;76.85;35.58;;;;;;;;;;5030585;28;20029;-64
2022/02/03 22:57:50;;;;;;;62.65;28.17;;;;;;;;;;5030701;28;20536;-65
2022/02/03 23:00:21;;;;;;;68.82;28.77;;;;;;;;;;5030558;28;20111;-65
2022/02/03 23:02:47;;;;;;;70.18;31.83;;;;;;;;;;5034851;28;20044;-65
2022/02/03 23:05:16;;;;;;;81.50;34.17;;;;;;;;;;5048998;28;20412;-65
2022/02/03 23:10:25;;;;;;;70.43;32.67;;;;;;;;;;5050657;28;20494;-65
2022/02/03 23:15:42;;;;;;;63.88;27.08;;;;;;;;;;5050445;28;20025;-65
2022/02/03 23:18:30;;;;;;;51.92;22.98;;;;;;;;;;5050897;28;20027;-65
2022/02/03 23:23:40;;;;;;;36.47;18.00;;;;;;;;;;5050385;28;20036;-65
2022/02/03 23:26:09;;;;;;;51.60;22.63;;;;;;;;;;5050329;28;20040;-65
2022/02/03 23:28:36;;;;;;;44.67;19.52;;;;;;;;;;5050128;28;20062;-66
2022/02/03 23:31:03;;;;;;;39.72;18.50;;;;;;;;;;5050074;28;20032;-65
2022/02/03 23:33:30;;;;;;;43.38;19.65;;;;;;;;;;5050206;28;20187;-64
2022/02/03 23:35:57;;;;;;;51.97;22.27;;;;;;;;;;5050281;28;20044;-65
2022/02/03 23:44:01;;;;;;;51.95;22.92;;;;;;;;;;5053638;28;20495;-64
